Time;durP1;ratioP1;P1;durP2;ratioP2;P2;SDS_P1;SDS_P2;PMS_P1;PMS_P2;Temp;Humidity;BMP_temperature;BMP_pressure;BME280_temperature;BME280_humidity;BME280_pressure;Samples;Min_cycle;Max_cycle;Signal;HPM_P1;HPM_P2
2023/11/01 00:01:54;;;;;;;1999.90;999.90;;;;;;;13.70;78.20;96009.06;5154368;27;20039;-63
2023/11/01 00:04:25;;;;;;;1999.90;999.90;;;;;;;13.72;78.23;96011.59;5154291;27;20047;-63
2023/11/01 00:06:52;;;;;;;1999.90;999.90;;;;;;;13.69;78.03;96006.56;5154249;27;20502;-63
2023/11/01 00:09:20;;;;;;;1999.90;999.90;;;;;;;13.73;77.86;95998.38;5154183;27;20042;-63
2023/11/01 00:11:48;;;;;;;1999.90;999.90;;;;;;;13.79;78.08;95998.97;5154171;27;20099;-63
2023/11/01 00:14:18;;;;;;;1999.90;999.90;;;;;;;13.79;77.79;95997.19;5154124;27;20526;-63
2023/11/01 00:16:46;;;;;;;1999.90;999.90;;;;;;;13.84;77.53;96007.41;5154232;27;20114;-62
2023/11/01 00:19:14;;;;;;;1999.90;999.90;;;;;;;13.86;77.44;96002.91;5154196;27;20055;-63
2023/11/01 00:21:41;;;;;;;1999.90;999.90;;;;;;;13.84;77.21;95997.75;5156766;27;20039;-62
2023/11/01 00:24:09;;;;;;;1999.90;999.90;;;;;;;13.88;77.06;96001.03;5158026;27;20103;-63
2023/11/01 00:26:36;;;;;;;1999.90;999.90;;;;;;;13.91;76.75;96008.75;5157840;27;20047;-63
2023/11/01 00:29:04;;;;;;;1999.90;999.90;;;;;;;13.95;76.59;96012.03;5157800;27;20135;-63
2023/11/01 00:31:31;;;;;;;1999.90;999.90;;;;;;;13.95;76.46;96004.13;5157720;27;20043;-63
2023/11/01 00:34:00;;;;;;;1999.90;999.90;;;;;;;13.88;76.38;95995.78;5157754;27;20047;-63
2023/11/01 00:36:27;;;;;;;1999.90;999.90;;;;;;;13.86;76.84;95993.25;5157740;27;20057;-63
2023/11/01 00:38:54;;;;;;;1999.90;999.90;;;;;;;13.79;77.22;95981.41;5157307;27;20483;-62
2023/11/01 00:41:21;;;;;;;1999.90;999.90;;;;;;;13.73;77.56;95984.41;5157535;27;20047;-62
2023/11/01 00:43:48;;;;;;;1999.90;999.90;;;;;;;13.64;78.19;95986.63;5157589;27;20053;-63
2023/11/01 00:46:17;;;;;;;1999.90;999.90;;;;;;;13.68;78.42;95995.19;5157426;27;20464;-63
2023/11/01 00:48:44;;;;;;;1999.90;999.90;;;;;;;13.67;78.10;95990.88;5157586;27;20552;-63
2023/11/01 00:51:12;;;;;;;1999.90;999.90;;;;;;;13.71;77.97;95995.00;5157415;27;20046;-62
2023/11/01 00:53:40;;;;;;;1999.90;999.90;;;;;;;13.72;77.65;95999.31;5157253;27;20133;-62
2023/11/01 00:56:08;;;;;;;1999.90;999.90;;;;;;;13.71;77.69;96004.66;5157419;27;20043;-63
2023/11/01 00:58:35;;;;;;;1999.90;999.90;;;;;;;13.71;77.76;96005.53;5157290;27;20506;-63
2023/11/01 01:01:02;;;;;;;1999.90;999.90;;;;;;;13.64;78.42;96004.19;5157245;27;20042;-63
2023/11/01 01:03:29;;;;;;;1999.90;999.90;;;;;;;13.64;78.36;95999.78;5157139;27;20389;-63
2023/11/01 01:05:57;;;;;;;1999.90;999.90;;;;;;;13.55;78.12;95987.19;5157106;27;20046;-62
2023/11/01 01:08:25;;;;;;;1999.90;999.90;;;;;;;13.45;78.65;95981.59;5157021;27;20043;-63
2023/11/01 01:10:52;;;;;;;1999.90;999.90;;;;;;;13.49;78.76;95990.16;5156922;27;20619;-63
2023/11/01 01:13:19;;;;;;;1999.90;999.90;;;;;;;13.56;78.43;96004.63;5157034;27;20054;-63
2023/11/01 01:15:46;;;;;;;1999.90;999.90;;;;;;;13.57;78.36;96001.06;5157000;27;20068;-63
2023/11/01 01:18:14;;;;;;;1999.90;999.90;;;;;;;13.60;78.14;96000.88;5156941;27;20377;-63
2023/11/01 01:20:42;;;;;;;1999.90;999.90;;;;;;;13.63;77.88;95997.22;5156980;27;20503;-63
2023/11/01 01:23:10;;;;;;;1999.90;999.90;;;;;;;13.63;77.77;95999.84;5156793;27;20043;-63
2023/11/01 01:25:38;;;;;;;1999.90;999.90;;;;;;;13.66;77.90;95989.16;5156783;27;20038;-62
2023/11/01 01:28:06;;;;;;;1999.90;999.90;;;;;;;13.67;77.96;95992.66;5156715;27;20126;-63
2023/11/01 01:30:33;;;;;;;1999.90;999.90;;;;;;;13.70;77.86;95990.66;5156565;27;20046;-63
2023/11/01 01:33:00;;;;;;;1999.90;999.90;;;;;;;13.70;77.77;95984.59;5155622;27;20043;-63
2023/11/01 01:35:27;;;;;;;1999.90;999.90;;;;;;;13.68;77.62;95982.06;5156482;27;20123;-63
2023/11/01 01:37:54;;;;;;;1999.90;999.90;;;;;;;13.67;77.64;95980.38;5156640;27;20054;-62
2023/11/01 01:40:22;;;;;;;1999.90;999.90;;;;;;;13.68;77.69;95989.94;5156140;27;20137;-63
2023/11/01 01:42:51;;;;;;;1999.90;999.90;;;;;;;13.67;77.82;95985.63;5156610;27;20042;-63
2023/11/01 01:45:18;;;;;;;1999.90;999.90;;;;;;;13.67;77.75;95990.88;5156431;27;20095;-63
2023/11/01 01:47:45;;;;;;;1999.90;999.90;;;;;;;13.64;77.63;95989.25;5156302;27;20050;-62
2023/11/01 01:50:13;;;;;;;1999.90;999.90;;;;;;;13.64;77.61;95989.25;5156143;27;20079;-63
2023/11/01 01:52:42;;;;;;;1999.90;999.90;;;;;;;13.67;77.80;95997.91;5156294;27;20411;-63
2023/11/01 01:55:10;;;;;;;1999.90;999.90;;;;;;;13.68;77.70;95999.59;5156125;27;20481;-63
2023/11/01 01:57:37;;;;;;;1999.90;999.90;;;;;;;13.64;77.79;95981.38;5156067;27;20068;-63
2023/11/01 02:00:08;;;;;;;1999.90;999.90;;;;;;;13.53;78.13;95983.81;5156084;27;20047;-63
2023/11/01 02:02:36;;;;;;;1999.90;999.90;;;;;;;13.53;78.92;95986.44;5156044;27;20042;-63
2023/11/01 02:05:06;;;;;;;1999.90;999.90;;;;;;;13.53;78.54;95978.53;5155909;27;20085;-63
2023/11/01 02:07:33;;;;;;;1999.90;999.90;;;;;;;13.51;78.22;95983.88;5155912;27;20049;-63
2023/11/01 02:10:01;;;;;;;1999.90;999.90;;;;;;;13.48;78.06;95991.91;5155925;27;20133;-63
2023/11/01 02:12:28;;;;;;;1999.90;999.90;;;;;;;13.48;77.70;95994.53;5155948;27;20043;-62
2023/11/01 02:14:55;;;;;;;1999.90;999.90;;;;;;;13.49;77.91;95995.41;5155691;27;20428;-63
2023/11/01 02:17:23;;;;;;;1999.90;999.90;;;;;;;13.39;77.93;95993.31;5155892;27;20125;-63
2023/11/01 02:19:51;;;;;;;1999.90;999.90;;;;;;;13.36;77.91;95998.72;5155875;27;20047;-63
2023/11/01 02:22:18;;;;;;;1999.90;999.90;;;;;;;13.31;78.26;96003.41;5155581;27;20054;-63
2023/11/01 02:24:48;;;;;;;1999.90;999.90;;;;;;;13.26;78.40;96003.69;5155567;27;20089;-63
2023/11/01 02:27:15;;;;;;;1999.90;999.90;;;;;;;13.23;78.41;96013.50;5155507;27;20068;-64
2023/11/01 02:29:42;;;;;;;1999.90;999.90;;;;;;;13.19;78.17;96019.88;5155508;27;20046;-63
2023/11/01 02:32:09;;;;;;;1999.90;999.90;;;;;;;13.10;78.89;96026.50;5155461;27;20078;-63
2023/11/01 02:34:37;;;;;;;1999.90;999.90;;;;;;;13.01;79.52;96017.34;5155541;27;20121;-62
2023/11/01 02:37:04;;;;;;;1999.90;999.90;;;;;;;13.03;79.95;96015.47;5155401;27;20042;-63
2023/11/01 02:39:31;;;;;;;1999.90;999.90;;;;;;;12.98;79.84;96014.91;5155174;27;20480;-63
2023/11/01 02:42:00;;;;;;;1999.90;999.90;;;;;;;12.94;80.03;96021.25;5155320;27;20043;-63
2023/11/01 02:44:27;;;;;;;1999.90;999.90;;;;;;;12.94;80.35;96016.00;5155085;27;20043;-63
2023/11/01 02:46:54;;;;;;;1999.90;999.90;;;;;;;12.93;80.42;96017.78;5155279;27;20043;-63
2023/11/01 02:49:21;;;;;;;1999.90;999.90;;;;;;;12.95;80.16;96026.44;5155201;27;20134;-63
2023/11/01 02:51:49;;;;;;;1999.90;999.90;;;;;;;12.95;79.96;96026.44;5155066;27;20056;-63
2023/11/01 02:54:16;;;;;;;1999.90;999.90;;;;;;;12.91;79.82;96024.88;5155097;27;20054;-63
2023/11/01 02:56:43;;;;;;;1999.90;999.90;;;;;;;12.86;80.10;96029.56;5155156;27;20095;-63
2023/11/01 02:59:12;;;;;;;1999.90;999.90;;;;;;;12.79;80.42;96034.28;5154874;27;20046;-63
2023/11/01 03:01:39;;;;;;;1999.90;999.90;;;;;;;12.80;80.66;96035.13;5155012;27;20078;-63
2023/11/01 03:04:06;;;;;;;1999.90;999.90;;;;;;;12.77;80.70;96031.75;5154964;27;20103;-63
2023/11/01 03:06:33;;;;;;;1999.90;999.90;;;;;;;12.71;80.28;96041.75;5154842;27;20053;-63
2023/11/01 03:09:00;;;;;;;1999.90;999.90;;;;;;;12.71;80.25;96050.47;5154863;27;20514;-62
2023/11/01 03:11:27;;;;;;;1999.90;999.90;;;;;;;12.71;80.08;96058.34;5154689;27;20051;-63
2023/11/01 03:13:54;;;;;;;1999.90;999.90;;;;;;;12.68;79.67;96057.66;5154878;27;20049;-62
2023/11/01 03:16:22;;;;;;;1999.90;999.90;;;;;;;12.67;79.46;96051.53;5154845;27;20461;-63
2023/11/01 03:18:49;;;;;;;1999.90;999.90;;;;;;;12.60;79.38;96047.56;5154786;27;20103;-63
2023/11/01 03:21:16;;;;;;;1999.90;999.90;;;;;;;12.56;79.31;96049.53;5154696;27;20042;-62
2023/11/01 03:23:43;;;;;;;1999.90;999.90;;;;;;;12.49;79.23;96043.75;5154710;27;20078;-63
2023/11/01 03:26:11;;;;;;;1999.90;999.90;;;;;;;12.45;79.32;96046.59;5154737;27;20046;-63
2023/11/01 03:28:38;;;;;;;1999.90;999.90;;;;;;;12.43;79.68;96043.25;5154703;27;20050;-63
2023/11/01 03:31:06;;;;;;;1999.90;999.90;;;;;;;12.38;79.68;96039.06;5154541;27;20078;-62
2023/11/01 03:33:33;;;;;;;1999.90;999.90;;;;;;;12.36;80.19;96043.56;5154742;27;20484;-63
2023/11/01 03:36:00;;;;;;;1999.90;999.90;;;;;;;12.37;79.90;96040.00;5154631;27;20058;-62
2023/11/01 03:38:27;;;;;;;1999.90;999.90;;;;;;;12.36;80.25;96050.56;5154375;27;20038;-63
2023/11/01 03:40:54;;;;;;;1999.90;999.90;;;;;;;12.42;80.83;96047.63;5154583;27;20055;-62
2023/11/01 03:43:21;;;;;;;1999.90;999.90;;;;;;;12.47;80.67;96050.00;5154536;27;20049;-62
2023/11/01 03:45:48;;;;;;;1999.90;999.90;;;;;;;12.50;80.77;96047.22;5154522;27;20039;-63
2023/11/01 03:48:16;;;;;;;1999.90;999.90;;;;;;;12.47;80.99;96044.75;5154489;27;20043;-63
2023/11/01 03:50:44;;;;;;;1999.90;999.90;;;;;;;12.53;81.13;96046.22;5154436;27;20103;-63
2023/11/01 03:53:12;;;;;;;1999.90;999.90;;;;;;;12.54;80.73;96032.16;5154439;27;20065;-63
2023/11/01 03:55:40;;;;;;;1999.90;999.90;;;;;;;12.49;81.39;96049.00;5155403;27;20046;-63
2023/11/01 03:58:07;;;;;;;1999.90;999.90;;;;;;;12.53;81.20;96048.81;5158422;27;20054;-63
2023/11/01 04:00:34;;;;;;;1999.90;999.90;;;;;;;12.58;81.48;96055.50;5158469;27;20050;-63
2023/11/01 04:03:01;;;;;;;1999.90;999.90;;;;;;;12.60;81.44;96065.94;5158726;27;20046;-63
2023/11/01 04:05:28;;;;;;;1999.90;999.90;;;;;;;12.54;81.57;96061.88;5158420;27;20045;-63
2023/11/01 04:07:56;;;;;;;1999.90;999.90;;;;;;;12.55;82.02;96071.41;5158379;27;20053;-62
2023/11/01 04:10:23;;;;;;;1999.90;999.90;;;;;;;12.64;81.81;96072.69;5158312;27;20484;-63
2023/11/01 04:12:51;;;;;;;1999.90;999.90;;;;;;;12.64;81.71;96068.31;5158143;27;20503;-62
2023/11/01 04:15:18;;;;;;;1999.90;999.90;;;;;;;12.66;81.88;96073.47;5158101;27;20045;-63
2023/11/01 04:17:45;;;;;;;1999.90;999.90;;;;;;;12.70;81.94;96077.63;5158205;27;20169;-63
2023/11/01 04:20:13;;;;;;;1999.90;999.90;;;;;;;12.74;81.63;96087.00;5158074;27;20049;-63
2023/11/01 04:22:40;;;;;;;1999.90;999.90;;;;;;;12.77;81.67;96086.03;5158074;27;20130;-63
2023/11/01 04:25:10;;;;;;;1999.90;999.90;;;;;;;12.78;81.74;96082.47;5157996;27;20047;-63
2023/11/01 04:27:39;;;;;;;1999.90;999.90;;;;;;;12.83;81.56;96083.06;5158128;27;20469;-63
2023/11/01 04:30:08;;;;;;;1999.90;999.90;;;;;;;12.91;81.10;96084.44;5158011;27;20074;-62
2023/11/01 04:32:36;;;;;;;1999.90;999.90;;;;;;;12.91;81.14;96087.06;5157844;27;20054;-63
2023/11/01 04:35:03;;;;;;;1999.90;999.90;;;;;;;12.99;81.00;96090.09;5157750;27;20046;-63
2023/11/01 04:37:30;;;;;;;1999.90;999.90;;;;;;;13.03;80.75;96086.34;5157802;27;20054;-63
2023/11/01 04:39:58;;;;;;;1999.90;999.90;;;;;;;13.06;80.67;96091.44;5157461;27;20055;-63
2023/11/01 04:42:27;;;;;;;1999.90;999.90;;;;;;;13.11;80.18;96093.81;5157574;27;20046;-63
2023/11/01 04:44:56;;;;;;;1999.90;999.90;;;;;;;13.10;80.18;96094.75;5157632;27;20111;-62
2023/11/01 04:47:24;;;;;;;1999.90;999.90;;;;;;;13.14;80.04;96102.38;5157514;27;20484;-62
2023/11/01 04:49:51;;;;;;;1999.90;999.90;;;;;;;13.13;80.04;96098.03;5157572;27;20043;-62
2023/11/01 04:52:19;;;;;;;1999.90;999.90;;;;;;;13.17;79.90;96103.13;5157288;27;20043;-63
2023/11/01 04:54:46;;;;;;;1999.90;999.90;;;;;;;13.15;79.83;96103.22;5157456;27;20046;-62
2023/11/01 04:57:14;;;;;;;1999.90;999.90;;;;;;;13.16;79.60;96106.69;5157267;27;20053;-63
2023/11/01 04:59:42;;;;;;;1999.90;999.90;;;;;;;13.12;79.79;96108.63;5157380;27;20445;-63
2023/11/01 05:02:10;;;;;;;1999.90;999.90;;;;;;;13.11;79.54;96109.56;5157427;27;20087;-63
2023/11/01 05:04:37;;;;;;;1999.90;999.90;;;;;;;13.08;79.40;96113.22;5157116;27;20043;-63
2023/11/01 05:07:04;;;;;;;1999.90;999.90;;;;;;;13.07;79.29;96123.81;5156993;27;20039;-63
2023/11/01 05:09:33;;;;;;;1999.90;999.90;;;;;;;13.03;79.26;96125.75;5157050;27;20074;-63
2023/11/01 05:12:00;;;;;;;1999.90;999.90;;;;;;;12.99;79.05;96134.72;5156833;27;20054;-62
2023/11/01 05:14:29;;;;;;;1999.90;999.90;;;;;;;12.96;79.00;96133.13;5156922;27;20107;-62
2023/11/01 05:16:59;;;;;;;1999.90;999.90;;;;;;;12.95;78.58;96141.94;5156988;27;20047;-63
2023/11/01 05:19:27;;;;;;;1999.90;999.90;;;;;;;12.83;78.68;96140.81;5156915;27;20130;-63
2023/11/01 05:21:54;;;;;;;1999.90;999.90;;;;;;;12.83;78.56;96146.06;5156767;27;20051;-62
2023/11/01 05:24:22;;;;;;;1999.90;999.90;;;;;;;12.91;78.55;96155.31;5156638;27;20096;-63
2023/11/01 05:26:49;;;;;;;1999.90;999.90;;;;;;;12.96;78.39;96156.75;5156761;27;20477;-63
2023/11/01 05:29:17;;;;;;;1999.90;999.90;;;;;;;13.06;78.24;96169.38;5156604;27;20307;-62
2023/11/01 05:31:44;;;;;;;1999.90;999.90;;;;;;;13.12;77.89;96171.66;5156652;27;20050;-63
2023/11/01 05:34:13;;;;;;;1999.90;999.90;;;;;;;13.19;77.90;96174.81;5156761;27;20043;-63
2023/11/01 05:36:40;;;;;;;1999.90;999.90;;;;;;;13.32;77.96;96170.59;5156560;27;20468;-63
2023/11/01 05:39:08;;;;;;;1999.90;999.90;;;;;;;13.45;77.77;96176.00;5156209;27;20404;-63
2023/11/01 05:41:36;;;;;;;1999.90;999.90;;;;;;;13.56;77.20;96171.94;5156358;27;20133;-63
2023/11/01 05:44:03;;;;;;;1999.90;999.90;;;;;;;13.69;76.55;96172.97;5156418;27;20039;-62
2023/11/01 05:46:32;;;;;;;1999.90;999.90;;;;;;;13.79;75.85;96164.56;5156367;27;20578;-63
2023/11/01 05:49:00;;;;;;;1999.90;999.90;;;;;;;13.94;76.45;96161.03;5156386;27;20126;-63
2023/11/01 05:51:30;;;;;;;1999.90;999.90;;;;;;;14.19;76.59;96164.88;5156130;27;20082;-63
2023/11/01 05:53:59;;;;;;;1999.90;999.90;;;;;;;15.35;72.72;96173.81;5156212;27;20133;-63
2023/11/01 05:56:30;;;;;;;1999.90;999.90;;;;;;;16.49;67.39;96196.34;5156151;27;20484;-64
2023/11/01 05:58:58;;;;;;;1999.90;999.90;;;;;;;17.03;64.98;96204.19;5156051;27;20051;-62
2023/11/01 06:01:28;;;;;;;1999.90;999.90;;;;;;;17.22;64.62;96198.47;5155999;27;20078;-63
2023/11/01 06:04:00;;;;;;;1999.90;999.90;;;;;;;18.16;61.05;96195.34;5155963;27;20046;-65
2023/11/01 06:06:32;;;;;;;1999.90;999.90;;;;;;;19.73;57.78;96204.66;5155959;27;20496;-64
2023/11/01 06:09:01;;;;;;;1999.90;999.90;;;;;;;21.23;51.67;96208.34;5155760;27;20053;-61
2023/11/01 06:11:29;;;;;;;1999.90;999.90;;;;;;;21.53;48.72;96206.63;5155662;27;20077;-61
2023/11/01 06:13:57;;;;;;;1999.90;999.90;;;;;;;20.83;48.94;96200.13;5155781;27;20050;-61
2023/11/01 06:16:26;;;;;;;1999.90;999.90;;;;;;;20.13;50.61;96195.28;5155603;27;20054;-61
2023/11/01 06:18:55;;;;;;;1999.90;999.90;;;;;;;19.39;52.29;96181.72;5155099;27;20051;-64
2023/11/01 06:21:24;;;;;;;1999.90;999.90;;;;;;;18.98;53.09;96182.16;5155583;27;20053;-63
2023/11/01 06:23:53;;;;;;;1999.90;999.90;;;;;;;18.63;53.93;96177.81;5155690;27;20050;-64
2023/11/01 06:26:21;;;;;;;1999.90;999.90;;;;;;;18.38;55.81;96180.50;5155608;27;20049;-63
2023/11/01 06:28:49;;;;;;;1999.90;999.90;;;;;;;18.16;57.41;96171.53;5155541;27;20043;-63
2023/11/01 06:31:20;;;;;;;1999.90;999.90;;;;;;;17.97;59.06;96173.81;5155371;27;20502;-63
2023/11/01 06:33:48;;;;;;;1999.90;999.90;;;;;;;17.75;59.80;96191.25;5155390;27;20051;-62
2023/11/01 06:36:17;;;;;;;1999.90;999.90;;;;;;;17.64;59.42;96198.16;5155309;27;20416;-63
2023/11/01 06:38:45;;;;;;;1999.90;999.90;;;;;;;17.53;59.73;96193.69;5155067;27;20054;-62
2023/11/01 06:41:15;;;;;;;1999.90;999.90;;;;;;;17.44;63.15;96191.69;5155346;27;20050;-63
2023/11/01 06:43:46;;;;;;;1999.90;999.90;;;;;;;17.33;62.63;96189.78;5155233;27;20074;-63
2023/11/01 06:46:14;;;;;;;;;;;;;;;17.24;62.43;96193.09;5155662;27;20082;-62
2023/11/01 06:48:43;;;;;;;1999.90;999.90;;;;;;;17.15;63.58;96192.78;5155060;27;19922;-64
2023/11/01 06:51:14;;;;;;;1999.90;999.90;;;;;;;17.12;64.24;96197.44;5155039;27;20099;-63
2023/11/01 06:53:43;;;;;;;1999.90;999.90;;;;;;;17.04;65.31;96195.31;5155103;27;20126;-63
2023/11/01 06:56:11;;;;;;;1999.90;999.90;;;;;;;16.99;65.36;96190.34;5155047;27;20045;-63
2023/11/01 06:58:43;;;;;;;1999.90;999.90;;;;;;;16.98;66.32;96193.94;5154960;27;20077;-63
2023/11/01 07:01:12;;;;;;;1999.90;999.90;;;;;;;17.01;66.52;96198.19;5154909;27;20106;-64
2023/11/01 07:03:40;;;;;;;1999.90;999.90;;;;;;;17.09;66.37;96209.06;5154871;27;20518;-62
2023/11/01 07:06:09;;;;;;;1999.90;999.90;;;;;;;17.16;63.44;96214.78;5154844;27;20130;-62
2023/11/01 07:08:42;;;;;;;1999.90;999.90;;;;;;;17.27;65.41;96216.66;5154908;27;20042;-62
2023/11/01 07:11:10;;;;;;;1999.90;999.90;;;;;;;17.33;65.09;96231.25;5154687;27;20085;-63
2023/11/01 07:13:38;;;;;;;1999.90;999.90;;;;;;;17.37;64.68;96227.44;5154884;27;20050;-63
2023/11/01 07:16:10;;;;;;;1999.90;999.90;;;;;;;17.45;63.46;96226.91;5154789;27;20050;-63
2023/11/01 07:18:40;;;;;;;1999.90;999.90;;;;;;;17.55;62.40;96235.88;5154676;27;20054;-63
2023/11/01 07:21:11;;;;;;;1999.90;999.90;;;;;;;17.64;61.67;96229.91;5154796;27;20507;-62
2023/11/01 07:23:39;;;;;;;1999.90;999.90;;;;;;;17.76;62.80;96227.34;5154628;27;20038;-62
2023/11/01 07:26:07;;;;;;;1999.90;999.90;;;;;;;17.86;62.04;96233.66;5154720;27;20082;-63
2023/11/01 07:28:36;;;;;;;1999.90;999.90;;;;;;;18.01;61.89;96228.19;5154546;27;20488;-64
2023/11/01 07:31:05;;;;;;;1999.90;999.90;;;;;;;18.11;61.43;96226.59;5156360;27;20130;-63
2023/11/01 07:33:37;;;;;;;1999.90;999.90;;;;;;;18.26;61.30;96219.31;5159118;27;20118;-63
2023/11/01 07:36:07;;;;;;;1999.90;999.90;;;;;;;18.50;60.00;96229.03;5158854;27;20099;-62
2023/11/01 07:38:35;;;;;;;1999.90;999.90;;;;;;;20.29;55.67;96222.25;5158485;27;20491;-63
2023/11/01 07:41:03;;;;;;;1999.90;999.90;;;;;;;22.81;45.65;96235.22;5158650;27;20046;-63
2023/11/01 07:43:32;;;;;;;1999.90;999.90;;;;;;;24.92;42.14;96236.53;5158769;27;20055;-64
2023/11/01 07:46:00;;;;;;;1999.90;999.90;;;;;;;26.90;37.93;96236.53;5158769;27;20053;-64
2023/11/01 07:48:29;;;;;;;1999.90;999.90;;;;;;;28.61;34.00;96235.34;5158838;27;20050;-64
2023/11/01 07:50:58;;;;;;;76.72;71.68;;;;;;;29.60;32.40;96238.16;5158756;27;20051;-63
2023/11/01 07:53:27;;;;;;;74.25;67.38;;;;;;;30.38;30.15;96248.44;5158673;27;20053;-62
2023/11/01 07:55:57;;;;;;;67.88;62.97;;;;;;;30.46;30.09;96246.66;5158368;27;20129;-61
2023/11/01 07:58:25;;;;;;;55.92;51.63;;;;;;;30.26;30.46;96244.56;5158362;27;20053;-63
2023/11/01 08:00:54;;;;;;;52.08;47.95;;;;;;;29.66;29.96;96256.28;5158401;27;20082;-63
2023/11/01 08:03:23;;;;;;;58.63;53.30;;;;;;;28.85;31.85;96250.47;5158376;27;20039;-63
2023/11/01 08:05:52;;;;;;;62.73;58.30;;;;;;;28.22;32.78;96251.38;5158398;27;20042;-62
2023/11/01 08:08:21;;;;;;;62.17;57.72;;;;;;;27.23;34.37;96250.75;5158340;27;20095;-63
2023/11/01 08:10:50;;;;;;;56.67;52.55;;;;;;;26.62;35.49;96253.78;5158258;27;20053;-64
2023/11/01 08:13:18;;;;;;;55.42;51.25;;;;;;;26.05;36.64;96247.28;5158054;27;20051;-63
2023/11/01 08:15:47;;;;;;;55.95;51.60;;;;;;;25.78;37.11;96250.06;5158105;27;20043;-63
2023/11/01 08:18:16;;;;;;;53.92;49.85;;;;;;;25.42;37.95;96247.50;5158021;27;20055;-62
2023/11/01 08:20:45;;;;;;;56.13;52.10;;;;;;;25.19;38.18;96240.84;5158079;27;20043;-62
2023/11/01 08:23:14;;;;;;;52.78;48.33;;;;;;;25.18;38.57;96233.00;5157936;27;20483;-62
2023/11/01 08:25:44;;;;;;;50.13;46.22;;;;;;;25.11;37.87;96238.16;5157907;27;20130;-63
2023/11/01 08:28:12;;;;;;;52.00;47.78;;;;;;;25.09;38.64;96235.63;5157893;27;20087;-62
2023/11/01 08:30:40;;;;;;;48.95;45.53;;;;;;;24.95;37.87;96242.38;5157857;27;20056;-63
2023/11/01 08:33:08;;;;;;;54.28;49.95;;;;;;;24.81;38.08;96243.78;5157541;27;20047;-63
2023/11/01 08:35:38;;;;;;;49.53;45.25;;;;;;;24.47;38.41;96247.16;5157850;27;20038;-62
2023/11/01 08:38:08;;;;;;;52.90;48.90;;;;;;;24.56;39.04;96246.22;5157767;27;20074;-62
2023/11/01 08:40:36;;;;;;;;;;;;;;;24.56;39.35;96243.56;5157959;27;20416;-63
2023/11/01 08:43:06;;;;;;;55.30;51.03;;;;;;;24.65;39.65;96246.31;5157152;27;19918;-63
2023/11/01 08:45:33;;;;;;;54.90;50.67;;;;;;;24.77;38.85;96239.69;5157664;27;20096;-63
2023/11/01 08:48:00;;;;;;;51.35;47.40;;;;;;;24.50;38.67;96246.00;5157481;27;20572;-62
2023/11/01 08:50:28;;;;;;;49.90;46.50;;;;;;;24.40;38.95;96246.06;5157485;27;20057;-63
2023/11/01 08:52:55;;;;;;;56.97;52.90;;;;;;;24.30;38.47;96249.69;5157302;27;20057;-63
2023/11/01 08:55:23;;;;;;;51.08;47.53;;;;;;;24.20;35.34;96257.75;5157421;27;20075;-64
2023/11/01 08:57:50;;;;;;;48.53;45.47;;;;;;;24.03;35.12;96247.84;5157426;27;20047;-63
2023/11/01 09:00:19;;;;;;;47.88;44.42;;;;;;;24.21;36.76;96251.44;5157293;27;20050;-63
2023/11/01 09:02:46;;;;;;;44.60;41.85;;;;;;;24.44;35.43;96250.13;5157285;27;20552;-64
2023/11/01 09:05:15;;;;;;;42.50;39.55;;;;;;;24.59;34.77;96242.44;5157202;27;20103;-64
2023/11/01 09:07:43;;;;;;;44.30;41.20;;;;;;;24.60;33.09;96246.75;5157123;27;20042;-62
2023/11/01 09:10:11;;;;;;;41.05;38.63;;;;;;;24.45;33.78;96250.00;5157183;27;20078;-63
2023/11/01 09:12:38;;;;;;;44.00;41.40;;;;;;;24.48;33.27;96256.84;5157064;27;20050;-64
2023/11/01 09:15:07;;;;;;;42.55;39.92;;;;;;;24.44;33.44;96252.81;5157069;27;20086;-62
2023/11/01 09:17:36;;;;;;;46.42;43.35;;;;;;;24.20;32.73;96247.06;5156953;27;20075;-62
2023/11/01 09:20:03;;;;;;;43.08;40.25;;;;;;;24.04;34.00;96244.19;5157022;27;20049;-62
2023/11/01 09:22:31;;;;;;;44.00;41.20;;;;;;;23.83;34.52;96248.81;5157012;27;20046;-64
2023/11/01 09:24:59;;;;;;;38.85;36.53;;;;;;;23.64;34.26;96241.75;5156868;27;20053;-64
2023/11/01 09:27:27;;;;;;;40.97;38.47;;;;;;;23.38;34.34;96237.06;5156919;27;20130;-64
2023/11/01 09:29:55;;;;;;;42.70;39.92;;;;;;;23.39;35.37;96233.41;5156738;27;20048;-62
2023/11/01 09:32:22;;;;;;;46.08;43.20;;;;;;;23.46;34.35;96226.53;5156581;27;20038;-64
2023/11/01 09:34:51;;;;;;;43.63;40.47;;;;;;;23.32;35.01;96229.63;5156547;27;20418;-64
2023/11/01 09:37:18;;;;;;;45.10;42.13;;;;;;;23.47;35.28;96224.69;5156651;27;20470;-62
2023/11/01 09:39:46;;;;;;;43.22;40.15;;;;;;;23.61;34.18;96228.69;5156270;27;20490;-64
2023/11/01 09:42:19;;;;;;;42.90;39.83;;;;;;;23.76;34.84;96222.84;5156457;27;20093;-63
2023/11/01 09:51:41;;;;;;;;;;;;;;;;;;;;;
2023/11/01 10:02:41;;;;;;;40.90;38.40;;;;;;;23.71;32.62;96194.78;5081564;27;20413;-63
2023/11/01 10:05:20;;;;;;;43.13;39.97;;;;;;;23.57;33.45;96205.97;5156163;27;20081;-62
2023/11/01 10:08:03;;;;;;;40.03;37.58;;;;;;;23.43;32.78;96197.47;5156062;27;20522;-63
2023/11/01 10:10:32;;;;;;;41.80;39.17;;;;;;;23.45;33.81;96198.13;5139634;27;20054;-63
2023/11/01 10:13:00;;;;;;;41.37;38.63;;;;;;;23.50;34.25;96195.03;5155854;27;20552;-64
2023/11/01 10:15:27;;;;;;;40.58;38.00;;;;;;;23.64;33.76;96196.38;5155851;27;20135;-63
2023/11/01 10:17:54;;;;;;;39.53;35.95;;;;;;;23.73;33.30;96198.16;5155890;27;20449;-62
2023/11/01 10:20:23;;;;;;;37.55;35.28;;;;;;;23.59;33.35;96198.63;5155878;27;20043;-63
2023/11/01 10:22:52;;;;;;;42.78;39.55;;;;;;;23.28;33.87;96201.56;5155698;27;20086;-63
2023/11/01 10:25:20;;;;;;;41.20;38.45;;;;;;;23.28;34.27;96188.22;5155645;27;20500;-63
2023/11/01 10:27:47;;;;;;;41.97;39.58;;;;;;;23.33;33.38;96186.78;5155775;27;20488;-63
2023/11/01 10:30:15;;;;;;;42.80;39.58;;;;;;;23.17;33.97;96191.91;5155689;27;20099;-63
2023/11/01 10:32:55;;;;;;;41.28;38.85;;;;;;;23.27;34.31;96194.56;5155434;27;20082;-63
2023/11/01 10:35:22;;;;;;;41.33;38.72;;;;;;;23.46;34.55;96197.16;5155339;27;20085;-63
2023/11/01 10:37:56;;;;;;;44.90;41.03;;;;;;;23.70;35.85;96193.09;5155449;27;20042;-64
2023/11/01 10:40:23;;;;;;;47.75;43.92;;;;;;;23.91;37.52;96194.66;5155139;27;20097;-63
2023/11/01 10:42:54;;;;;;;48.13;43.90;;;;;;;23.95;37.25;96200.53;5155237;27;20086;-63
2023/11/01 10:45:22;;;;;;;49.10;44.70;;;;;;;23.81;37.54;96197.38;5155232;27;20046;-63
2023/11/01 10:47:51;;;;;;;48.13;44.22;;;;;;;23.68;38.07;96189.75;5155417;27;20085;-62
2023/11/01 10:50:19;;;;;;;48.40;44.85;;;;;;;23.61;37.91;96188.66;5155225;27;20047;-63
2023/11/01 10:52:48;;;;;;;47.35;43.33;;;;;;;23.75;38.36;96187.28;5155102;27;20127;-62
2023/11/01 10:55:20;;;;;;;46.35;41.65;;;;;;;23.81;37.87;96188.56;5155236;27;20082;-61
2023/11/01 10:57:49;;;;;;;51.53;47.70;;;;;;;23.91;37.62;96188.47;5155135;27;20043;-61
2023/11/01 11:00:21;;;;;;;48.17;44.50;;;;;;;24.06;37.23;96188.78;5155117;27;20049;-61
2023/11/01 11:02:53;;;;;;;47.13;43.30;;;;;;;23.90;36.59;96190.28;5155054;27;20043;-61
2023/11/01 11:05:27;;;;;;;44.00;40.70;;;;;;;23.78;37.43;96189.66;5154965;27;20392;-65
2023/11/01 11:07:57;;;;;;;49.85;45.65;;;;;;;23.64;37.55;96185.69;5154885;27;20406;-62
2023/11/01 11:10:27;;;;;;;46.28;42.05;;;;;;;23.57;37.17;96171.28;5154964;27;20051;-61
2023/11/01 11:13:25;;;;;;;46.97;43.47;;;;;;;23.51;38.12;96182.53;5154815;27;20452;-63
2023/11/01 11:15:56;;;;;;;45.97;42.30;;;;;;;23.32;38.23;96177.09;5154849;27;20479;-62
2023/11/01 11:18:25;;;;;;;45.10;42.15;;;;;;;23.14;37.91;96173.56;5154827;27;20445;-60
2023/11/01 11:20:53;;;;;;;45.40;41.88;;;;;;;22.99;38.36;96182.00;5154844;27;20043;-61
2023/11/01 11:23:22;;;;;;;47.72;43.72;;;;;;;22.87;38.56;96178.66;5154730;27;20077;-63